Dobrodošli na spletni strani vremenske postaje Senovo. Vse informacije so informativnega značaja, saj vremenska postaja ni del državne mreže meteoroloških postaj. AKTUALNIH OBVESTIL NI.


Sneg/Led Od: 21-02-2018 00:00 Do: 23-02-2018 23:59 Opozorilo za: Sneg/Led Stopnja: Rumena info button
Veter Od: 21-02-2018 00:00 Do: 22-02-2018 23:59 Opozorilo za: Veter Stopnja: Rumena info button

Pogled proti Armezu več informacij Pogled proti Armezu


Lisca več informacij Lisca


Radar strel več informacij blitzortung!


opozorilo za sneg/led več informacij rain snow radar


Obiščite še:

Template documentation
and downloads

And another site



Weather Underground, zgodovina - Tekstovno

Dnevni povzetek za April 19, 2017 Enote:  Angleško    Metrično   Obe
« Predhodni Dan
Naslednji Dan »
Dnevni Tedenski Mesečni Letni Po meri
  Višja: Nižja: Povprečje:
Temperatura: TemperatureC °F 0.1 °F 5.3 °F
Točka rosišča: DewpointC °F -7.1 °F -3 °F
Vlažnost: Humidity % 40 % 57 %
Hitrost vetra: WindSpeedKMH mph 0.0 mph 5.3 mph
Sunki vetra: WindSpeedGustKMH mph - -
Veter:- - SE
Zračni tlak: PressurehPa in 1013.1 in -
Padavine: 0.0 in    
Historical Graphs
 
 
Tabelarni podarki za April 19, 2017
Čas Temperatura Točka rosišča Zračni tlak Veter Hitrost vetra Sunki vetra Vlažnost Intenziteta padavin (urna)
TemperatureC °F DewpointC °F PressurehPa in Calm     Humidity % HourlyPrecipMM in
00:04 4.1 °F 1.3 °F 1013.1 in NE 3.5 mph 11.9 mph 82 % 0.3 in
00:09 4.3 °F 1.2 °F 1013.1 in NE 4.7 mph 11.9 mph 80 % 0.0 in
00:14 4.4 °F 1.1 °F 1013.1 in NNE 5.0 mph 10.5 mph 79 % 0.0 in
00:19 4.5 °F 1.0 °F 1014.1 in NNE 3.9 mph 10.5 mph 78 % 0.0 in
00:24 4.5 °F 1.0 °F 1014.1 in NNE 2.9 mph 8.7 mph 78 % 0.0 in
00:29 4.5 °F 0.8 °F 1014.1 in NE 3.1 mph 9.7 mph 77 % 0.0 in
00:34 4.6 °F 0.7 °F 1014.1 in ENE 2.7 mph 9.7 mph 76 % 0.0 in
00:39 4.7 °F 0.7 °F 1014.1 in ENE 3.7 mph 9.0 mph 75 % 0.0 in
00:44 4.7 °F 0.7 °F 1014.1 in ENE 4.0 mph 9.0 mph 75 % 0.0 in
00:49 4.7 °F 0.4 °F 1013.1 in ENE 3.2 mph 6.9 mph 74 % 0.0 in
00:54 4.7 °F 0.3 °F 1013.1 in ENE 3.9 mph 12.6 mph 73 % 0.0 in
00:59 4.7 °F 0.3 °F 1013.1 in ENE 5.6 mph 12.6 mph 73 % 0.0 in
01:04 4.8 °F 0.0 °F 1013.1 in NE 7.6 mph 19.5 mph 71 % 0.0 in
01:09 4.7 °F -0.1 °F 1013.1 in North 6.0 mph 19.5 mph 71 % 0.0 in
01:14 4.8 °F -0.4 °F 1013.1 in NE 5.3 mph 16.3 mph 69 % 0.0 in
01:19 4.8 °F -0.2 °F 1014.1 in ENE 6.6 mph 16.3 mph 70 % 0.0 in
01:24 4.7 °F -0.3 °F 1014.1 in ENE 5.3 mph 13.0 mph 70 % 0.0 in
01:30 4.7 °F -0.5 °F 1014.1 in ENE 4.7 mph 11.9 mph 69 % 0.0 in
01:35 4.7 °F -0.5 °F 1014.1 in ENE 5.8 mph 11.9 mph 69 % 0.0 in
01:41 4.7 °F -0.5 °F 1014.1 in ENE 4.3 mph 10.1 mph 69 % 0.0 in
01:46 4.6 °F -0.6 °F 1014.1 in ENE 3.7 mph 9.7 mph 69 % 0.0 in
01:51 4.6 °F -0.6 °F 1013.1 in ENE 4.3 mph 9.7 mph 69 % 0.0 in
01:56 4.5 °F -0.7 °F 1013.1 in ENE 3.7 mph 8.7 mph 69 % 0.0 in
02:01 4.4 °F -0.8 °F 1013.1 in NE 3.2 mph 7.6 mph 69 % 0.0 in
02:06 4.4 °F -0.8 °F 1014.1 in ENE 3.2 mph 11.6 mph 69 % 0.0 in
02:11 4.5 °F -0.7 °F 1014.1 in ENE 6.0 mph 21.2 mph 69 % 0.0 in
02:16 4.5 °F -0.7 °F 1014.1 in ENE 7.1 mph 21.2 mph 69 % 0.0 in
02:21 4.5 °F -0.9 °F 1014.1 in ENE 7.7 mph 13.7 mph 68 % 0.0 in
02:26 4.5 °F -0.7 °F 1014.1 in ENE 7.7 mph 13.7 mph 69 % 0.0 in
02:31 4.5 °F -0.9 °F 1014.1 in ENE 6.3 mph 13.0 mph 68 % 0.0 in
02:36 4.6 °F -0.8 °F 1014.1 in NE 7.9 mph 20.6 mph 68 % 0.0 in
02:41 4.6 °F -1.0 °F 1014.1 in ENE 9.5 mph 20.6 mph 67 % 0.0 in
02:46 4.6 °F -1.0 °F 1014.1 in NE 9.2 mph 19.8 mph 67 % 0.0 in
02:51 4.5 °F -1.1 °F 1013.1 in NE 8.2 mph 19.8 mph 67 % 0.0 in
02:56 4.5 °F -1.1 °F 1013.1 in NE 7.4 mph 17.7 mph 67 % 0.0 in
03:01 4.5 °F -1.1 °F 1013.1 in ENE 7.1 mph 19.8 mph 67 % 0.0 in
03:06 4.5 °F -1.1 °F 1014.1 in ENE 5.3 mph 19.8 mph 67 % 0.0 in
03:11 4.4 °F -1.0 °F 1014.1 in East 2.6 mph 5.0 mph 68 % 0.0 in
03:16 4.3 °F -1.1 °F 1014.1 in ESE 1.1 mph 4.3 mph 68 % 0.0 in
03:21 4.2 °F -1.2 °F 1013.1 in NNE 1.4 mph 4.3 mph 68 % 0.0 in
03:26 4.1 °F -1.1 °F 1013.1 in NNE 1.0 mph 5.0 mph 69 % 0.0 in
03:31 4.1 °F -1.1 °F 1013.1 in ENE 0.5 mph 5.0 mph 69 % 0.0 in
03:36 3.9 °F -0.9 °F 1013.1 in NNE 1.0 mph 4.3 mph 71 % 0.0 in
03:41 3.8 °F -1.0 °F 1013.1 in North 1.0 mph 4.0 mph 71 % 0.0 in
03:46 3.7 °F -0.9 °F 1013.1 in NNW 1.4 mph 4.0 mph 72 % 0.0 in
03:51 3.6 °F -0.8 °F 1013.1 in NW 1.8 mph 5.8 mph 73 % 0.0 in
03:56 3.4 °F -1.0 °F 1013.1 in WNW 2.3 mph 6.4 mph 73 % 0.0 in
04:01 3.5 °F -0.9 °F 1013.1 in NNW 2.6 mph 9.3 mph 73 % 0.0 in
04:06 3.6 °F -1.0 °F 1013.1 in NE 3.7 mph 10.5 mph 72 % 0.0 in
04:11 3.7 °F -1.1 °F 1013.1 in NE 4.5 mph 10.5 mph 71 % 0.0 in
04:16 3.7 °F -1.1 °F 1013.1 in ENE 3.5 mph 6.1 mph 71 % 0.0 in
04:21 3.6 °F -1.2 °F 1013.1 in ENE 3.1 mph 5.5 mph 71 % 0.0 in
04:26 3.6 °F -1.0 °F 1013.1 in NE 1.9 mph 5.5 mph 72 % 0.0 in
04:31 3.4 °F -1.0 °F 1014.1 in North 0.5 mph 4.0 mph 73 % 0.0 in
04:36 3.1 °F -1.1 °F 1014.1 in West 0.8 mph 4.7 mph 74 % 0.0 in
04:41 2.9 °F -1.1 °F 1014.1 in WSW 1.4 mph 4.7 mph 75 % 0.0 in
04:46 2.7 °F -1.1 °F 1013.1 in SW 1.0 mph 4.7 mph 76 % 0.0 in
04:51 2.6 °F -1.2 °F 1013.1 in West 1.0 mph 4.3 mph 76 % 0.0 in
04:56 2.3 °F -1.3 °F 1013.1 in West 0.8 mph 4.3 mph 77 % 0.0 in
05:01 2.2 °F -1.4 °F 1014.1 in Calm     77 % 0.0 in
05:06 2.0 °F -1.4 °F 1014.1 in Calm     78 % 0.0 in
05:11 1.9 °F -1.3 °F 1014.1 in Calm     79 % 0.0 in
05:16 1.8 °F -1.4 °F 1014.1 in Calm     79 % 0.0 in
05:21 1.6 °F -1.7 °F 1014.1 in Calm     79 % 0.0 in
05:26 1.5 °F -1.6 °F 1014.1 in Calm     80 % 0.0 in
05:31 1.4 °F -1.7 °F 1013.1 in Calm     80 % 0.0 in
05:36 1.3 °F -1.8 °F 1013.1 in West 0.8 mph 4.3 mph 80 % 0.0 in
05:41 1.1 °F -1.8 °F 1013.1 in West 1.1 mph 4.3 mph 81 % 0.0 in
05:46 1.0 °F -1.7 °F 1014.1 in West 0.3 mph 3.2 mph 82 % 0.0 in
05:52 0.9 °F -1.8 °F 1014.1 in Calm   4.0 mph 82 % 0.0 in
05:57 0.8 °F -1.9 °F 1014.1 in WNW 1.1 mph 4.3 mph 82 % 0.0 in
06:02 0.7 °F -1.8 °F 1013.1 in West 1.4 mph 4.3 mph 83 % 0.0 in
06:07 0.6 °F -1.9 °F 1013.1 in ENE 0.8 mph 2.6 mph 83 % 0.0 in
06:12 0.5 °F -1.9 °F 1013.1 in WNW 1.3 mph 4.3 mph 84 % 0.0 in
06:17 0.4 °F -2.0 °F 1014.1 in West 0.8 mph 4.3 mph 84 % 0.0 in
06:22 0.3 °F -2.1 °F 1014.1 in WSW 1.1 mph 5.0 mph 84 % 0.0 in
06:27 0.3 °F -2.1 °F 1014.1 in WSW 2.4 mph 5.0 mph 84 % 0.0 in
06:32 0.2 °F -2.0 °F 1013.1 in NE 1.4 mph 4.7 mph 85 % 0.0 in
06:37 0.2 °F -2.0 °F 1013.1 in Calm     85 % 0.0 in
06:42 0.1 °F -2.1 °F 1013.1 in Calm     85 % 0.0 in
06:47 0.1 °F -1.9 °F 1014.1 in Calm     86 % 0.0 in
06:52 0.2 °F -1.9 °F 1014.1 in Calm     86 % 0.0 in
06:57 0.2 °F -1.9 °F 1014.1 in Calm   4.0 mph 86 % 0.0 in
07:02 0.3 °F -1.6 °F 1014.1 in SW 1.0 mph 4.0 mph 87 % 0.0 in
07:07 0.4 °F -1.7 °F 1014.1 in SW 0.8 mph 4.0 mph 86 % 0.0 in
07:12 0.4 °F -1.5 °F 1014.1 in Calm     87 % 0.0 in
07:17 0.5 °F -1.4 °F 1014.1 in Calm     87 % 0.0 in
07:22 0.7 °F -1.1 °F 1014.1 in Calm     88 % 0.0 in
07:27 0.8 °F -0.9 °F 1014.1 in ENE 0.2 mph 3.5 mph 88 % 0.0 in
07:32 0.9 °F -0.9 °F 1015.1 in ENE 0.2 mph 3.5 mph 88 % 0.0 in
07:37 1.1 °F -0.7 °F 1015.1 in Calm     88 % 0.0 in
07:42 1.2 °F -0.6 °F 1015.1 in Calm     88 % 0.0 in
07:47 1.3 °F -0.4 °F 1014.1 in Calm   3.5 mph 88 % 0.0 in
07:52 1.6 °F -0.2 °F 1014.1 in NNW 0.3 mph 3.5 mph 88 % 0.0 in
07:57 1.8 °F 0.0 °F 1014.1 in NE 0.3 mph 3.2 mph 88 % 0.0 in
08:02 2.0 °F 0.2 °F 1014.1 in ENE 1.0 mph 4.3 mph 88 % 0.0 in
08:07 2.2 °F 0.4 °F 1014.1 in ENE 2.7 mph 6.1 mph 88 % 0.0 in
08:12 2.3 °F 0.5 °F 1014.1 in East 2.6 mph 6.1 mph 88 % 0.0 in
08:17 2.7 °F 0.9 °F 1014.1 in East 1.6 mph 4.3 mph 88 % 0.0 in
08:22 3.0 °F 1.2 °F 1014.1 in East 1.8 mph 4.7 mph 88 % 0.0 in
08:27 3.5 °F 1.6 °F 1014.1 in ESE 1.4 mph 4.7 mph 87 % 0.0 in
08:32 3.9 °F 1.9 °F 1014.1 in East 0.8 mph 4.0 mph 87 % 0.0 in
08:37 4.4 °F 2.3 °F 1014.1 in ESE 1.6 mph 4.7 mph 86 % 0.0 in
08:42 4.9 °F 2.8 °F 1014.1 in SE 3.1 mph 6.9 mph 86 % 0.0 in
08:47 5.1 °F 2.8 °F 1014.1 in South 3.4 mph 6.9 mph 85 % 0.0 in
08:52 5.6 °F 3.1 °F 1014.1 in South 4.2 mph 10.1 mph 84 % 0.0 in
08:57 6.2 °F 3.5 °F 1014.1 in SSE 6.0 mph 10.5 mph 83 % 0.0 in
09:03 6.4 °F 3.0 °F 1014.1 in SSE 6.6 mph 10.5 mph 79 % 0.0 in
09:08 6.8 °F 3.2 °F 1014.1 in SSE 5.8 mph 10.1 mph 78 % 0.0 in
09:12 7.0 °F 2.7 °F 1014.1 in SSW 4.7 mph 12.6 mph 74 % 0.0 in
09:17 7.3 °F 2.2 °F 1014.1 in WSW 5.5 mph 12.6 mph 70 % 0.0 in
09:23 7.3 °F 1.4 °F 1014.1 in NW 5.5 mph 10.1 mph 66 % 0.0 in
09:28 7.4 °F 1.4 °F 1014.1 in WNW 5.0 mph 9.7 mph 66 % 0.0 in
09:33 7.5 °F 0.4 °F 1013.1 in NW 5.1 mph 9.3 mph 61 % 0.0 in
09:38 7.5 °F 0.0 °F 1013.1 in NE 4.5 mph 8.7 mph 59 % 0.0 in
09:43 7.5 °F -0.5 °F 1013.1 in East 4.3 mph 10.1 mph 57 % 0.0 in
09:48 7.6 °F -1.4 °F 1014.1 in ENE 5.5 mph 13.0 mph 53 % 0.0 in
09:53 7.5 °F -1.5 °F 1014.1 in NE 6.9 mph 13.0 mph 53 % 0.0 in
09:58 7.6 °F -1.1 °F 1014.1 in ENE 6.1 mph 10.5 mph 54 % 0.0 in
10:03 7.6 °F -1.7 °F 1013.1 in East 4.5 mph 10.1 mph 52 % 0.0 in
10:08 7.4 °F -2.1 °F 1013.1 in NE 4.2 mph 9.0 mph 51 % 0.0 in
10:13 7.4 °F -1.8 °F 1013.1 in NW 4.3 mph 7.6 mph 52 % 0.0 in
10:18 7.4 °F -1.8 °F 1014.1 in NNW 5.0 mph 12.6 mph 52 % 0.0 in
10:23 7.5 °F -1.7 °F 1014.1 in ENE 3.2 mph 12.6 mph 52 % 0.0 in
10:28 7.5 °F -2.0 °F 1014.1 in East 3.5 mph 12.6 mph 51 % 0.0 in
10:33 7.5 °F -2.3 °F 1013.1 in ENE 5.8 mph 12.6 mph 50 % 0.0 in
10:38 7.5 °F -2.6 °F 1013.1 in North 7.4 mph 22.7 mph 49 % 0.0 in
10:43 7.4 °F -2.6 °F 1013.1 in NNW 7.9 mph 22.7 mph 49 % 0.0 in
10:48 7.5 °F -2.6 °F 1014.1 in North 5.5 mph 10.5 mph 49 % 0.0 in
10:53 7.6 °F -2.4 °F 1014.1 in ENE 4.8 mph 20.6 mph 49 % 0.0 in
10:58 7.6 °F -2.4 °F 1014.1 in NE 5.8 mph 20.6 mph 49 % 0.0 in
11:03 7.7 °F -2.6 °F 1014.1 in NNE 4.8 mph 9.7 mph 48 % 0.0 in
11:08 7.6 °F -3.0 °F 1014.1 in North 5.3 mph 25.6 mph 47 % 0.0 in
11:13 7.5 °F -3.1 °F 1014.1 in NNE 10.0 mph 25.6 mph 47 % 0.0 in
11:18 7.4 °F -3.2 °F 1014.1 in NE 10.9 mph 25.3 mph 47 % 0.0 in
11:23 7.4 °F -3.2 °F 1014.1 in NE 7.1 mph 17.7 mph 47 % 0.0 in
11:28 7.5 °F -3.1 °F 1014.1 in NNE 5.3 mph 11.6 mph 47 % 0.0 in
11:33 7.5 °F -3.1 °F 1014.1 in NNW 4.3 mph 11.6 mph 47 % 0.0 in
11:38 7.6 °F -3.0 °F 1014.1 in NNE 4.8 mph 11.6 mph 47 % 0.0 in
11:43 7.6 °F -3.3 °F 1014.1 in NE 6.3 mph 13.0 mph 46 % 0.0 in
11:48 7.7 °F -2.9 °F 1014.1 in NE 4.3 mph 13.7 mph 47 % 0.0 in
11:53 7.7 °F -3.2 °F 1014.1 in NE 4.5 mph 13.7 mph 46 % 0.0 in
11:58 7.8 °F -2.8 °F 1014.1 in NNE 5.0 mph 12.6 mph 47 % 0.0 in
12:03 8.0 °F -2.7 °F 1015.1 in NNW 5.3 mph 12.6 mph 47 % 0.0 in
12:08 8.1 °F -2.6 °F 1015.1 in NNW 6.0 mph 10.5 mph 47 % 0.0 in
12:13 8.2 °F -2.4 °F 1015.1 in WNW 5.5 mph 13.7 mph 47 % 0.0 in
12:18 8.1 °F -2.8 °F 1014.1 in NNW 8.2 mph 17.2 mph 46 % 0.0 in
12:23 8.1 °F -2.8 °F 1014.1 in NNW 9.7 mph 17.2 mph 46 % 0.0 in
12:28 8.1 °F -2.8 °F 1014.1 in NW 8.7 mph 17.2 mph 46 % 0.0 in
12:33 8.1 °F -3.1 °F 1015.1 in NW 9.3 mph 24.5 mph 45 % 0.0 in
12:38 8.1 °F -3.1 °F 1015.1 in NW 7.4 mph 24.5 mph 45 % 0.0 in
12:43 8.2 °F -2.8 °F 1015.1 in NW 6.4 mph 17.7 mph 46 % 0.0 in
12:48 8.3 °F -2.9 °F 1015.1 in NNW 6.9 mph 17.7 mph 45 % 0.0 in
12:53 8.4 °F -2.6 °F 1015.1 in NNE 5.1 mph 9.7 mph 46 % 0.0 in
12:58 8.4 °F -2.9 °F 1015.1 in West 5.6 mph 15.8 mph 45 % 0.0 in
13:03 8.5 °F -2.8 °F 1014.1 in NE 6.6 mph 15.8 mph 45 % 0.0 in
13:08 8.5 °F -3.1 °F 1014.1 in NNW 6.8 mph 15.8 mph 44 % 0.0 in
13:13 8.4 °F -3.8 °F 1014.1 in NW 8.2 mph 20.1 mph 42 % 0.0 in
13:18 8.5 °F -3.4 °F 1015.1 in NNW 7.1 mph 20.1 mph 43 % 0.0 in
13:23 8.5 °F -3.7 °F 1015.1 in North 6.8 mph 14.3 mph 42 % 0.0 in
13:29 8.5 °F -3.4 °F 1015.1 in North 7.7 mph 15.8 mph 43 % 0.0 in
13:34 8.5 °F -3.4 °F 1014.1 in NNW 7.6 mph 15.8 mph 43 % 0.0 in
13:39 8.5 °F -3.7 °F 1014.1 in NNW 6.9 mph 12.2 mph 42 % 0.0 in
13:44 8.6 °F -3.3 °F 1014.1 in NE 6.3 mph 19.8 mph 43 % 0.0 in
13:49 8.5 °F -3.4 °F 1015.1 in NE 5.8 mph 19.8 mph 43 % 0.0 in
13:54 8.5 °F -3.4 °F 1015.1 in NNE 4.3 mph 10.1 mph 43 % 0.0 in
13:59 8.5 °F -3.4 °F 1015.1 in NNE 6.4 mph 16.6 mph 43 % 0.0 in
14:04 8.5 °F -3.4 °F 1015.1 in NE 7.2 mph 16.6 mph 43 % 0.0 in
14:09 8.5 °F -3.7 °F 1015.1 in NNE 6.1 mph 12.2 mph 42 % 0.0 in
14:14 8.5 °F -3.7 °F 1015.1 in North 6.0 mph 11.6 mph 42 % 0.0 in
14:19 8.6 °F -3.6 °F 1015.1 in NNE 6.3 mph 16.3 mph 42 % 0.0 in
14:24 8.6 °F -3.9 °F 1015.1 in NE 8.7 mph 21.2 mph 41 % 0.0 in
14:29 8.8 °F -3.8 °F 1015.1 in ENE 10.6 mph 21.2 mph 41 % 0.0 in
14:34 8.9 °F -3.3 °F 1015.1 in ENE 8.8 mph 21.2 mph 42 % 0.0 in
14:39 8.8 °F -3.8 °F 1015.1 in NNE 7.6 mph 17.2 mph 41 % 0.0 in
14:44 8.7 °F -3.8 °F 1015.1 in North 8.0 mph 15.8 mph 41 % 0.0 in
14:49 8.5 °F -4.0 °F 1016.1 in North 7.6 mph 17.2 mph 41 % 0.0 in
14:54 8.3 °F -4.6 °F 1016.1 in NE 8.7 mph 20.9 mph 40 % 0.0 in
14:59 8.2 °F -4.3 °F 1016.1 in NE 8.0 mph 20.9 mph 41 % 0.0 in
15:04 8.2 °F -4.3 °F 1016.1 in NNE 6.8 mph 13.0 mph 41 % 0.0 in
15:09 8.1 °F -4.4 °F 1016.1 in NE 9.2 mph 20.1 mph 41 % 0.0 in
15:14 8.0 °F -4.5 °F 1016.1 in NE 9.3 mph 20.1 mph 41 % 0.0 in
15:19 7.9 °F -4.6 °F 1016.1 in NE 7.7 mph 14.0 mph 41 % 0.0 in
15:24 7.8 °F -4.3 °F 1016.1 in ENE 8.4 mph 18.3 mph 42 % 0.0 in
15:29 7.5 °F -4.6 °F 1016.1 in ENE 7.2 mph 18.3 mph 42 % 0.0 in
15:34 7.5 °F -4.6 °F 1016.1 in ENE 5.1 mph 11.9 mph 42 % 0.0 in
15:39 7.3 °F -4.8 °F 1016.1 in ENE 8.7 mph 16.9 mph 42 % 0.0 in
15:44 7.2 °F -4.9 °F 1016.1 in ENE 10.8 mph 16.9 mph 42 % 0.0 in
15:49 7.2 °F -4.6 °F 1016.1 in East 7.4 mph 12.2 mph 43 % 0.0 in
15:54 7.3 °F -4.5 °F 1016.1 in East 5.1 mph 12.2 mph 43 % 0.0 in
15:59 7.3 °F -4.5 °F 1016.1 in East 4.5 mph 9.0 mph 43 % 0.0 in
16:04 7.3 °F -4.5 °F 1016.1 in East 4.7 mph 9.0 mph 43 % 0.0 in
16:09 7.4 °F -4.7 °F 1016.1 in NE 4.0 mph 7.6 mph 42 % 0.0 in
16:14 7.4 °F -4.4 °F 1016.1 in NNE 2.7 mph 7.6 mph 43 % 0.0 in
16:19 7.4 °F -4.7 °F 1016.1 in WNW 3.4 mph 11.9 mph 42 % 0.0 in
16:24 7.4 °F -4.7 °F 1016.1 in WNW 9.3 mph 25.9 mph 42 % 0.0 in
16:29 7.3 °F -4.8 °F 1016.1 in NNW 10.9 mph 32.3 mph 42 % 0.0 in
16:34 7.3 °F -4.8 °F 1016.1 in NNE 6.9 mph 32.3 mph 42 % 0.0 in
16:39 7.3 °F -4.8 °F 1016.1 in NE 5.6 mph 13.0 mph 42 % 0.0 in
16:44 7.1 °F -4.9 °F 1016.1 in North 7.4 mph 14.0 mph 42 % 0.0 in
16:49 7.1 °F -4.9 °F 1016.1 in NNW 7.1 mph 14.0 mph 42 % 0.0 in
16:54 7.1 °F -4.7 °F 1016.1 in North 5.3 mph 13.7 mph 43 % 0.0 in
16:59 7.0 °F -4.7 °F 1016.1 in NNW 5.8 mph 13.7 mph 43 % 0.0 in
17:04 6.9 °F -4.6 °F 1016.1 in NW 6.0 mph 13.7 mph 44 % 0.0 in
17:09 6.8 °F -4.6 °F 1016.1 in WNW 6.1 mph 13.7 mph 44 % 0.0 in
17:14 6.8 °F -4.9 °F 1016.1 in NW 6.0 mph 13.7 mph 43 % 0.0 in
17:15 6.8 °F -4.6 °F 1016.1 in NW 5.8 mph 12.2 mph 44 % 0.0 in
17:20 6.8 °F -4.6 °F 1016.1 in West 5.0 mph 9.0 mph 44 % 0.0 in
17:25 6.7 °F -5.0 °F 1016.1 in West 6.3 mph 15.8 mph 43 % 0.0 in
17:30 6.7 °F -5.0 °F 1016.1 in WNW 8.4 mph 15.8 mph 43 % 0.0 in
17:35 6.7 °F -5.0 °F 1016.1 in West 6.1 mph 14.8 mph 43 % 0.0 in
17:40 6.6 °F -5.1 °F 1016.1 in NW 3.2 mph 9.0 mph 43 % 0.0 in
17:45 6.6 °F -5.1 °F 1016.1 in North 2.6 mph 6.4 mph 43 % 0.0 in
17:50 6.6 °F -5.1 °F 1016.8 in SSW 3.1 mph 6.4 mph 43 % 0.0 in
17:55 6.6 °F -4.8 °F 1016.8 in SSW 2.3 mph 6.4 mph 44 % 0.0 in
18:00 6.5 °F -4.9 °F 1016.8 in NE 1.6 mph 5.8 mph 44 % 0.0 in
18:05 6.5 °F -5.2 °F 1016.8 in NNE 3.1 mph 10.5 mph 43 % 0.0 in
18:10 6.5 °F -5.5 °F 1016.8 in ENE 4.5 mph 10.5 mph 42 % 0.0 in
18:15 6.5 °F -5.2 °F 1016.8 in ENE 5.3 mph 10.5 mph 43 % 0.0 in
18:21 6.4 °F -5.9 °F 1016.8 in ENE 4.5 mph 12.6 mph 41 % 0.0 in
18:26 6.4 °F -5.9 °F 1016.8 in NE 5.6 mph 13.7 mph 41 % 0.0 in
18:31 6.4 °F -5.9 °F 1016.8 in ENE 8.2 mph 18.0 mph 41 % 0.0 in
18:36 6.3 °F -6.0 °F 1016.8 in ENE 7.1 mph 18.0 mph 41 % 0.0 in
18:41 6.3 °F -6.0 °F 1016.8 in North 5.6 mph 12.6 mph 41 % 0.0 in
18:46 6.2 °F -6.1 °F 1016.8 in NNE 5.8 mph 10.5 mph 41 % 0.0 in
18:51 6.1 °F -6.2 °F 1016.8 in North 5.6 mph 15.4 mph 41 % 0.0 in
18:56 6.1 °F -6.2 °F 1016.8 in North 6.3 mph 15.4 mph 41 % 0.0 in
19:01 6.0 °F -6.6 °F 1016.8 in NE 7.6 mph 15.4 mph 40 % 0.0 in
19:06 6.0 °F -6.3 °F 1016.8 in NE 6.8 mph 15.4 mph 41 % 0.0 in
19:11 6.0 °F -6.3 °F 1016.8 in North 5.5 mph 15.8 mph 41 % 0.0 in
19:16 5.9 °F -6.4 °F 1016.8 in North 6.0 mph 16.6 mph 41 % 0.0 in
19:21 5.9 °F -6.4 °F 1016.8 in North 6.6 mph 16.6 mph 41 % 0.0 in
19:26 5.8 °F -6.4 °F 1016.8 in NW 5.8 mph 16.6 mph 41 % 0.0 in
19:31 5.8 °F -6.4 °F 1016.8 in WNW 4.2 mph 11.9 mph 41 % 0.0 in
19:36 5.8 °F -6.4 °F 1016.8 in NNW 5.6 mph 16.3 mph 41 % 0.0 in
19:41 5.8 °F -6.8 °F 1016.8 in NNW 7.9 mph 19.1 mph 40 % 0.0 in
19:46 5.8 °F -6.4 °F 1018.2 in North 7.2 mph 19.1 mph 41 % 0.0 in
19:51 5.7 °F -6.6 °F 1018.2 in North 5.6 mph 13.7 mph 41 % 0.0 in
19:56 5.7 °F -6.6 °F 1018.2 in NNE 4.3 mph 13.7 mph 41 % 0.0 in
20:01 5.7 °F -6.6 °F 1018.2 in NE 5.8 mph 20.6 mph 41 % 0.0 in
20:06 5.6 °F -6.7 °F 1018.2 in North 7.9 mph 20.6 mph 41 % 0.0 in
20:11 5.6 °F -6.7 °F 1018.2 in NW 7.7 mph 28.5 mph 41 % 0.0 in
20:16 5.6 °F -6.7 °F 1018.2 in NW 6.4 mph 28.5 mph 41 % 0.0 in
20:21 5.6 °F -6.7 °F 1018.2 in NW 8.0 mph 24.5 mph 41 % 0.0 in
20:26 5.5 °F -6.7 °F 1018.2 in NNE 9.2 mph 24.5 mph 41 % 0.0 in
20:31 5.4 °F -6.8 °F 1018.2 in NE 12.9 mph 33.1 mph 41 % 0.0 in
20:36 5.4 °F -6.8 °F 1018.2 in NE 15.3 mph 43.6 mph 41 % 0.0 in
20:41 5.4 °F -6.8 °F 1018.2 in NE 12.9 mph 43.6 mph 41 % 0.0 in
20:46 5.3 °F -6.9 °F 1018.2 in NE 10.3 mph 27.0 mph 41 % 0.0 in
20:51 5.3 °F -6.9 °F 1018.2 in NE 8.2 mph 20.1 mph 41 % 0.0 in
20:56 5.3 °F -6.9 °F 1018.2 in NE 6.9 mph 16.9 mph 41 % 0.0 in
21:01 5.2 °F -7.0 °F 1016.8 in ENE 6.9 mph 18.3 mph 41 % 0.0 in
21:06 5.1 °F -7.1 °F 1016.8 in ENE 10.3 mph 30.2 mph 41 % 0.0 in
21:11 5.1 °F -6.8 °F 1016.8 in ENE 12.1 mph 30.2 mph 42 % 0.0 in
21:16 5.1 °F -6.8 °F 1016.8 in NE 8.0 mph 16.9 mph 42 % 0.0 in
21:21 5.0 °F -6.9 °F 1016.8 in NNE 6.1 mph 11.6 mph 42 % 0.0 in
21:26 5.0 °F -6.9 °F 1016.8 in NE 7.4 mph 32.0 mph 42 % 0.0 in
21:31 4.9 °F -6.7 °F 1016.8 in NE 13.5 mph 32.0 mph 43 % 0.0 in
21:36 4.8 °F -6.7 °F 1016.8 in NE 13.4 mph 27.7 mph 43 % 0.0 in
21:41 4.8 °F -6.7 °F 1016.8 in ENE 7.6 mph 19.5 mph 43 % 0.0 in
21:46 4.8 °F -6.7 °F 1018.2 in NE 8.7 mph 26.7 mph 43 % 0.0 in
21:51 4.7 °F -6.6 °F 1018.2 in NE 9.7 mph 26.7 mph 44 % 0.0 in
21:56 4.7 °F -6.6 °F 1018.2 in ENE 5.6 mph 20.9 mph 44 % 0.0 in
22:01 4.6 °F -6.6 °F 1018.2 in NE 5.8 mph 15.8 mph 44 % 0.0 in
22:06 4.5 °F -6.4 °F 1018.2 in NE 6.8 mph 15.8 mph 45 % 0.0 in
22:11 4.4 °F -6.5 °F 1018.2 in ENE 6.9 mph 17.7 mph 45 % 0.0 in
22:16 4.4 °F -6.5 °F 1018.2 in SE 7.2 mph 17.7 mph 45 % 0.0 in
22:21 4.4 °F -6.5 °F 1018.2 in ENE 8.0 mph 37.0 mph 45 % 0.0 in
22:26 4.4 °F -6.2 °F 1018.2 in NE 12.1 mph 42.5 mph 46 % 0.0 in
22:31 4.4 °F -6.2 °F 1018.2 in NE 10.8 mph 42.5 mph 46 % 0.0 in
22:36 4.4 °F -6.2 °F 1018.2 in NE 8.7 mph 38.1 mph 46 % 0.0 in
22:42 4.4 °F -6.2 °F 1018.2 in NE 9.8 mph 16.9 mph 46 % 0.0 in
22:47 4.4 °F -6.2 °F 1018.2 in NE 8.5 mph 17.2 mph 46 % 0.0 in
22:50 4.4 °F -6.2 °F 1018.2 in NE 7.1 mph 20.6 mph 46 % 0.0 in
22:55 4.4 °F -6.2 °F 1018.2 in ENE 8.5 mph 20.6 mph 46 % 0.0 in
23:00 4.4 °F -6.2 °F 1018.2 in ENE 11.4 mph 29.9 mph 46 % 0.0 in
23:05 4.4 °F -5.9 °F 1018.2 in NE 10.5 mph 29.9 mph 47 % 0.0 in
23:10 4.4 °F -6.2 °F 1018.2 in NE 6.8 mph 17.2 mph 46 % 0.0 in
23:15 4.4 °F -5.9 °F 1018.2 in NE 6.9 mph 20.9 mph 47 % 0.0 in
23:20 4.4 °F -5.9 °F 1018.2 in NNE 8.7 mph 21.2 mph 47 % 0.0 in
23:25 4.4 °F -5.9 °F 1018.2 in NNE 10.5 mph 21.2 mph 47 % 0.0 in
23:30 4.4 °F -6.2 °F 1018.2 in NNE 12.6 mph 25.3 mph 46 % 0.0 in
23:35 4.5 °F -6.1 °F 1018.2 in NNE 11.9 mph 25.3 mph 46 % 0.0 in
23:40 4.5 °F -6.1 °F 1018.2 in NNE 8.4 mph 19.5 mph 46 % 0.0 in
23:45 4.6 °F -6.1 °F 1018.2 in NE 8.0 mph 19.5 mph 46 % 0.0 in
23:50 4.7 °F -6.2 °F 1018.2 in NE 8.2 mph 14.0 mph 45 % 0.0 in
23:55 4.7 °F -6.2 °F 1018.2 in NNE 8.8 mph 20.6 mph 45 % 0.0 in
Vremenska postaja Senovo
Podatki zbrani iz Weather Underground - 3 mb

Script developed by  Jim McMurry - jmcmurry@mwt.net Adapted for the template by  Wim van der Kuil - Leuven-Template.eu

Vremenski podatki so objavljeni na:

European Weather Network

WeatherCloud

Weather Underground

AWEKAS

HAMweather, WeatherForYou, PWS Weather

MapView

Geostik

Slovenia weather network

Oprema, ki se uporablja:

Vremenski program
Cumulus

Vremenski server
Asus

Cumulus

Asus